Time;durP1;ratioP1;P1;durP2;ratioP2;P2;SDS_P1;SDS_P2;PMS_P1;PMS_P2;Temp;Humidity;BMP_temperature;BMP_pressure;BME280_temperature;BME280_humidity;BME280_pressure;Samples;Min_cycle;Max_cycle;Signal;HPM_P1;HPM_P2
2021/08/01 00:01:33;;;;;;;7.90;3.20;;;;;;;;;;5030575;28;20163;-73
2021/08/01 00:03:58;;;;;;;5.82;2.72;;;;;;;;;;5030073;28;20340;-72
2021/08/01 00:06:24;;;;;;;9.05;3.17;;;;;;;;;;5030200;28;20095;-73
2021/08/01 00:08:49;;;;;;;5.53;3.25;;;;;;;;;;5045590;28;20124;-73
2021/08/01 00:11:15;;;;;;;7.78;3.00;;;;;;;;;;5045282;28;20029;-73
2021/08/01 00:13:40;;;;;;;7.28;3.33;;;;;;;;;;5030020;28;20029;-73
2021/08/01 00:16:06;;;;;;;5.93;2.92;;;;;;;;;;5044997;28;20034;-73
2021/08/01 00:18:32;;;;;;;4.65;2.90;;;;;;;;;;5030025;28;20100;-73
2021/08/01 00:20:58;;;;;;;5.90;3.35;;;;;;;;;;5029014;28;20457;-73
2021/08/01 00:23:23;;;;;;;8.45;3.13;;;;;;;;;;5045144;28;20083;-73
2021/08/01 00:25:49;;;;;;;5.30;3.22;;;;;;;;;;5030112;28;20022;-74
2021/08/01 00:28:16;;;;;;;5.53;2.97;;;;;;;;;;5044845;28;20030;-72
2021/08/01 00:30:41;;;;;;;6.65;3.00;;;;;;;;;;5045021;28;20034;-73
2021/08/01 00:33:08;;;;;;;4.75;2.70;;;;;;;;;;5044759;28;20567;-73
2021/08/01 00:35:33;;;;;;;6.43;2.95;;;;;;;;;;5029656;28;20044;-73
2021/08/01 00:37:59;;;;;;;7.55;3.10;;;;;;;;;;5044773;28;20420;-73
2021/08/01 00:40:24;;;;;;;8.13;2.90;;;;;;;;;;5028252;28;20393;-73
2021/08/01 00:42:50;;;;;;;6.53;2.88;;;;;;;;;;5029548;28;20032;-73
2021/08/01 00:45:17;;;;;;;5.47;2.60;;;;;;;;;;5027881;28;20068;-73
2021/08/01 00:47:43;;;;;;;4.95;2.80;;;;;;;;;;5028069;28;20038;-73
2021/08/01 00:50:10;;;;;;;9.90;2.92;;;;;;;;;;5029327;28;20025;-72
2021/08/01 00:52:36;;;;;;;7.28;2.90;;;;;;;;;;5028255;28;20037;-72
2021/08/01 00:55:09;;;;;;;3.97;2.63;;;;;;;;;;5044339;28;20033;-73
2021/08/01 00:57:35;;;;;;;9.70;3.63;;;;;;;;;;5029384;28;20033;-72
2021/08/01 01:00:01;;;;;;;3.55;2.50;;;;;;;;;;5027774;28;20367;-73
2021/08/01 01:02:37;;;;;;;4.35;2.58;;;;;;;;;;5044655;28;20049;-73
2021/08/01 01:05:24;;;;;;;7.78;3.35;;;;;;;;;;5044390;28;20366;-73
2021/08/01 01:07:53;;;;;;;5.25;3.08;;;;;;;;;;5044638;28;20030;-73
2021/08/01 01:10:21;;;;;;;6.22;3.17;;;;;;;;;;5044264;28;20041;-73
2021/08/01 01:12:58;;;;;;;8.35;3.80;;;;;;;;;;5044393;28;20033;-73
2021/08/01 01:15:29;;;;;;;6.00;3.65;;;;;;;;;;5027989;28;20501;-73
2021/08/01 01:17:58;;;;;;;6.22;3.95;;;;;;;;;;5044410;28;20022;-73
2021/08/01 01:20:32;;;;;;;12.05;3.60;;;;;;;;;;5028567;28;20406;-73
2021/08/01 01:23:13;;;;;;;7.03;3.38;;;;;;;;;;5029180;28;20029;-73
2021/08/01 01:25:54;;;;;;;6.85;3.72;;;;;;;;;;5029057;28;20033;-73
2021/08/01 01:28:50;;;;;;;7.72;3.60;;;;;;;;;;5028789;28;20445;-74
2021/08/01 01:31:47;;;;;;;6.00;3.22;;;;;;;;;;5028983;28;20109;-73
2021/08/01 01:34:12;;;;;;;6.63;3.75;;;;;;;;;;5048091;28;20026;-73
2021/08/01 01:36:42;;;;;;;5.38;3.75;;;;;;;;;;5032885;28;20041;-73
2021/08/01 01:39:08;;;;;;;8.18;3.97;;;;;;;;;;5032646;28;20057;-73
2021/08/01 01:41:36;;;;;;;5.20;3.00;;;;;;;;;;5048344;28;20222;-73
2021/08/01 01:44:05;;;;;;;5.85;3.53;;;;;;;;;;5032789;28;20132;-73
2021/08/01 01:46:31;;;;;;;7.03;3.10;;;;;;;;;;5048027;28;20026;-73
2021/08/01 01:48:58;;;;;;;7.30;3.33;;;;;;;;;;5032824;28;20119;-73
2021/08/01 01:51:24;;;;;;;9.82;3.30;;;;;;;;;;5031510;28;20099;-72
2021/08/01 01:53:50;;;;;;;6.03;2.67;;;;;;;;;;5031459;28;20436;-73
2021/08/01 01:56:17;;;;;;;7.95;3.20;;;;;;;;;;5047590;28;20521;-72
2021/08/01 01:58:43;;;;;;;9.00;4.45;;;;;;;;;;5032770;28;20036;-74
2021/08/01 02:01:10;;;;;;;5.28;3.40;;;;;;;;;;5047642;28;20025;-72
2021/08/01 02:03:35;;;;;;;7.03;3.65;;;;;;;;;;5014932;28;20181;-73
2021/08/01 02:06:01;;;;;;;7.63;3.53;;;;;;;;;;5031032;28;20112;-72
2021/08/01 02:08:39;;;;;;;3.78;2.80;;;;;;;;;;5032393;28;20029;-73
2021/08/01 02:11:07;;;;;;;5.13;3.35;;;;;;;;;;5032243;28;20040;-73
2021/08/01 02:13:50;;;;;;;7.63;3.33;;;;;;;;;;5032322;28;20116;-73
2021/08/01 02:16:18;;;;;;;6.55;3.25;;;;;;;;;;5032021;28;20104;-73
2021/08/01 02:18:59;;;;;;;3.75;3.15;;;;;;;;;;5047540;28;20025;-73
2021/08/01 02:21:27;;;;;;;8.30;4.10;;;;;;;;;;5032501;28;20026;-73
2021/08/01 02:23:54;;;;;;;4.53;3.30;;;;;;;;;;5032272;28;20025;-73
2021/08/01 02:26:22;;;;;;;7.95;3.53;;;;;;;;;;5030988;28;20041;-71
2021/08/01 02:28:51;;;;;;;4.55;3.17;;;;;;;;;;5031090;28;20065;-74
2021/08/01 02:31:18;;;;;;;6.00;3.50;;;;;;;;;;5031836;28;20022;-73
2021/08/01 02:33:45;;;;;;;6.75;3.80;;;;;;;;;;5030706;28;20022;-72
2021/08/01 02:36:12;;;;;;;5.43;3.45;;;;;;;;;;5046765;28;20046;-73
2021/08/01 02:38:39;;;;;;;8.88;3.95;;;;;;;;;;5046761;28;20047;-73
2021/08/01 02:41:09;;;;;;;8.73;3.92;;;;;;;;;;5046833;28;20060;-73
2021/08/01 02:43:34;;;;;;;6.35;4.10;;;;;;;;;;5031275;28;20385;-73
2021/08/01 02:46:02;;;;;;;5.60;3.45;;;;;;;;;;5031727;28;20026;-72
2021/08/01 02:48:29;;;;;;;6.50;3.88;;;;;;;;;;5047162;28;20420;-73
2021/08/01 02:51:02;;;;;;;8.70;4.32;;;;;;;;;;5032107;28;20071;-73
2021/08/01 02:53:29;;;;;;;6.55;3.65;;;;;;;;;;5046917;28;20029;-73
2021/08/01 02:55:59;;;;;;;8.20;3.88;;;;;;;;;;5030253;28;20108;-73
2021/08/01 02:58:28;;;;;;;8.68;3.40;;;;;;;;;;5046866;28;20014;-72
2021/08/01 03:00:56;;;;;;;10.05;3.75;;;;;;;;;;5031423;28;20057;-72
2021/08/01 03:03:23;;;;;;;4.85;3.40;;;;;;;;;;5046326;28;20029;-74
2021/08/01 03:05:49;;;;;;;8.75;4.00;;;;;;;;;;5031287;28;20064;-72
2021/08/01 03:08:14;;;;;;;7.30;4.05;;;;;;;;;;5046533;28;20493;-72
2021/08/01 03:10:48;;;;;;;6.30;3.80;;;;;;;;;;5029896;28;20056;-72
2021/08/01 03:13:14;;;;;;;4.78;4.22;;;;;;;;;;5029829;28;20058;-72
2021/08/01 03:15:42;;;;;;;6.28;4.22;;;;;;;;;;5046639;28;20057;-72
2021/08/01 03:18:07;;;;;;;7.97;4.65;;;;;;;;;;5046354;28;20036;-73
2021/08/01 03:20:33;;;;;;;6.22;4.28;;;;;;;;;;5031244;28;20373;-73
2021/08/01 03:22:58;;;;;;;6.78;4.68;;;;;;;;;;5046264;28;20021;-73
2021/08/01 03:25:24;;;;;;;25.75;6.05;;;;;;;;;;5046019;28;20029;-72
2021/08/01 03:27:49;;;;;;;9.20;5.15;;;;;;;;;;5046118;28;20029;-71
2021/08/01 03:30:15;;;;;;;9.38;4.68;;;;;;;;;;5031037;28;20030;-72
2021/08/01 03:32:40;;;;;;;7.82;4.93;;;;;;;;;;5030880;28;20032;-72
2021/08/01 03:35:06;;;;;;;10.65;5.78;;;;;;;;;;5030686;28;20109;-73
2021/08/01 03:37:31;;;;;;;11.50;6.13;;;;;;;;;;5030756;28;20022;-74
2021/08/01 03:39:57;;;;;;;11.13;5.43;;;;;;;;;;5030971;28;20037;-74
2021/08/01 03:42:22;;;;;;;12.60;5.60;;;;;;;;;;5029674;28;20388;-72
2021/08/01 03:44:49;;;;;;;8.73;4.53;;;;;;;;;;5029679;28;20128;-72
2021/08/01 03:47:15;;;;;;;7.38;4.75;;;;;;;;;;5029180;28;20026;-72
2021/08/01 03:49:44;;;;;;;6.95;4.88;;;;;;;;;;5045971;28;20095;-73
2021/08/01 03:52:10;;;;;;;7.80;4.78;;;;;;;;;;5045629;28;20495;-73
2021/08/01 03:54:36;;;;;;;10.85;4.90;;;;;;;;;;5045632;28;20435;-73
2021/08/01 03:57:01;;;;;;;10.90;4.53;;;;;;;;;;5045877;28;20021;-73
2021/08/01 03:59:27;;;;;;;5.70;4.25;;;;;;;;;;5029115;28;20033;-73
2021/08/01 04:01:52;;;;;;;9.43;4.72;;;;;;;;;;5030543;28;20026;-73
2021/08/01 04:04:18;;;;;;;13.20;5.10;;;;;;;;;;5030216;28;20056;-72
2021/08/01 04:06:43;;;;;;;6.63;4.53;;;;;;;;;;5045787;28;20025;-73
2021/08/01 04:09:09;;;;;;;10.77;5.45;;;;;;;;;;5030094;28;20396;-72
2021/08/01 04:11:36;;;;;;;17.23;5.63;;;;;;;;;;5045457;28;20025;-73
2021/08/01 04:14:02;;;;;;;10.50;5.72;;;;;;;;;;5045505;28;20098;-71
2021/08/01 04:16:27;;;;;;;10.75;6.78;;;;;;;;;;5045391;28;20037;-72
2021/08/01 04:18:53;;;;;;;11.07;6.15;;;;;;;;;;5045514;28;20028;-71
2021/08/01 04:21:18;;;;;;;9.73;6.38;;;;;;;;;;5029906;28;20429;-72
2021/08/01 04:23:44;;;;;;;16.75;6.47;;;;;;;;;;5028829;28;20067;-72
2021/08/01 04:26:10;;;;;;;13.57;5.95;;;;;;;;;;5028540;28;20099;-72
2021/08/01 04:28:36;;;;;;;10.85;5.38;;;;;;;;;;5045088;28;20029;-72
2021/08/01 04:31:02;;;;;;;8.73;5.82;;;;;;;;;;5030081;28;20043;-73
2021/08/01 04:33:28;;;;;;;9.27;5.10;;;;;;;;;;5029995;28;20029;-72
2021/08/01 04:35:53;;;;;;;11.75;7.00;;;;;;;;;;5029743;28;20437;-72
2021/08/01 04:38:19;;;;;;;11.00;7.18;;;;;;;;;;5029389;28;20046;-73
2021/08/01 04:40:45;;;;;;;12.45;6.15;;;;;;;;;;5044870;28;20029;-72
2021/08/01 04:43:10;;;;;;;9.43;6.28;;;;;;;;;;5029262;28;20021;-72
2021/08/01 04:45:36;;;;;;;11.20;6.55;;;;;;;;;;5029636;28;20540;-72
2021/08/01 04:48:02;;;;;;;16.02;6.78;;;;;;;;;;5044634;28;20474;-72
2021/08/01 04:50:27;;;;;;;13.15;7.32;;;;;;;;;;5044877;28;20021;-72
2021/08/01 04:52:53;;;;;;;10.60;7.10;;;;;;;;;;5028426;28;20029;-72
2021/08/01 04:55:19;;;;;;;17.88;7.68;;;;;;;;;;5045059;28;20087;-72
2021/08/01 04:57:45;;;;;;;7.68;5.90;;;;;;;;;;5028417;28;20021;-72
2021/08/01 05:00:12;;;;;;;10.25;6.78;;;;;;;;;;5044843;28;20036;-74
2021/08/01 05:02:37;;;;;;;10.27;7.15;;;;;;;;;;5044640;28;20104;-72
2021/08/01 05:05:04;;;;;;;16.85;8.63;;;;;;;;;;5029421;28;20167;-71
2021/08/01 05:07:30;;;;;;;10.98;7.28;;;;;;;;;;5028658;28;20040;-73
2021/08/01 05:09:57;;;;;;;15.73;7.65;;;;;;;;;;5027919;28;20493;-72
2021/08/01 05:12:23;;;;;;;13.55;8.35;;;;;;;;;;5028906;28;20356;-75
2021/08/01 05:14:49;;;;;;;11.20;7.70;;;;;;;;;;5044526;28;20022;-72
2021/08/01 05:17:15;;;;;;;11.93;8.30;;;;;;;;;;5044346;28;20025;-72
2021/08/01 05:19:41;;;;;;;11.13;7.78;;;;;;;;;;5044785;28;20374;-73
2021/08/01 05:22:08;;;;;;;16.27;8.23;;;;;;;;;;5044832;28;20026;-73
2021/08/01 05:24:37;;;;;;;10.70;6.78;;;;;;;;;;5044495;28;20036;-71
2021/08/01 05:27:04;;;;;;;12.70;6.03;;;;;;;;;;5044478;28;20021;-71
2021/08/01 05:29:29;;;;;;;9.40;6.18;;;;;;;;;;5044573;28;20025;-71
2021/08/01 05:31:55;;;;;;;11.23;6.22;;;;;;;;;;5029189;28;20075;-71
2021/08/01 05:34:21;;;;;;;10.85;6.03;;;;;;;;;;5044239;28;20017;-71
2021/08/01 05:36:47;;;;;;;9.82;6.53;;;;;;;;;;5011545;28;20025;-72
2021/08/01 05:39:13;;;;;;;8.27;6.05;;;;;;;;;;5043863;28;20463;-73
2021/08/01 05:41:38;;;;;;;12.05;6.55;;;;;;;;;;5027821;28;20092;-73
2021/08/01 05:44:04;;;;;;;9.25;5.80;;;;;;;;;;5029236;28;20525;-73
2021/08/01 05:46:30;;;;;;;10.65;6.50;;;;;;;;;;5044414;28;20029;-72
2021/08/01 05:48:55;;;;;;;9.75;6.22;;;;;;;;;;5029275;28;20376;-72
2021/08/01 05:51:21;;;;;;;9.80;5.07;;;;;;;;;;5044067;28;20099;-73
2021/08/01 05:53:46;;;;;;;8.52;6.60;;;;;;;;;;5028978;28;20392;-71
2021/08/01 05:56:12;;;;;;;12.35;5.50;;;;;;;;;;5043918;28;20017;-71
2021/08/01 05:58:40;;;;;;;12.85;5.18;;;;;;;;;;5044069;28;20029;-72
2021/08/01 06:01:10;;;;;;;12.05;6.20;;;;;;;;;;5044145;28;20025;-72
2021/08/01 06:03:35;;;;;;;9.65;6.63;;;;;;;;;;5043877;28;20079;-72
2021/08/01 06:06:12;;;;;;;11.20;6.00;;;;;;;;;;5028917;28;20029;-73
2021/08/01 06:08:41;;;;;;;9.57;5.35;;;;;;;;;;5028678;28;20544;-72
2021/08/01 06:11:07;;;;;;;10.77;6.15;;;;;;;;;;5028931;28;20029;-72
2021/08/01 06:13:33;;;;;;;9.70;6.28;;;;;;;;;;5027309;28;20026;-73
2021/08/01 06:15:59;;;;;;;7.28;5.07;;;;;;;;;;5043903;28;20035;-71
2021/08/01 06:18:24;;;;;;;9.50;5.68;;;;;;;;;;5043998;28;20032;-73
2021/08/01 06:20:50;;;;;;;7.25;5.53;;;;;;;;;;5031053;28;20025;-73
2021/08/01 06:23:15;;;;;;;12.43;5.50;;;;;;;;;;5032137;28;20029;-74
2021/08/01 06:25:41;;;;;;;11.88;6.38;;;;;;;;;;5032218;28;20112;-72
2021/08/01 06:28:06;;;;;;;9.27;6.40;;;;;;;;;;5031864;28;20029;-72
2021/08/01 06:30:32;;;;;;;11.90;6.13;;;;;;;;;;5047019;28;20091;-72
2021/08/01 06:32:58;;;;;;;11.02;6.82;;;;;;;;;;5030611;28;20029;-72
2021/08/01 06:35:23;;;;;;;13.02;6.72;;;;;;;;;;5047092;28;20028;-71
2021/08/01 06:37:49;;;;;;;12.75;6.82;;;;;;;;;;5031952;28;20052;-71
2021/08/01 06:40:18;;;;;;;9.15;6.65;;;;;;;;;;5047195;28;20036;-71
2021/08/01 06:42:45;;;;;;;10.32;6.45;;;;;;;;;;5013920;28;20045;-74
2021/08/01 06:45:11;;;;;;;13.57;6.15;;;;;;;;;;5031697;28;20103;-72
2021/08/01 06:47:37;;;;;;;9.20;6.82;;;;;;;;;;5031429;28;20028;-72
2021/08/01 06:50:03;;;;;;;14.20;6.45;;;;;;;;;;5031651;28;20030;-72
2021/08/01 06:52:29;;;;;;;11.18;8.00;;;;;;;;;;5046593;28;20025;-72
2021/08/01 06:54:54;;;;;;;14.40;9.23;;;;;;;;;;5031695;28;20028;-73
2021/08/01 06:57:19;;;;;;;11.65;7.50;;;;;;;;;;5031466;28;20025;-72
2021/08/01 06:59:46;;;;;;;13.68;7.30;;;;;;;;;;5030035;28;20769;-73
2021/08/01 07:02:13;;;;;;;17.10;8.00;;;;;;;;;;5046837;28;20065;-72
2021/08/01 07:04:39;;;;;;;17.58;8.48;;;;;;;;;;5046691;28;20072;-71
2021/08/01 07:07:04;;;;;;;18.30;7.90;;;;;;;;;;5030042;28;20056;-72
2021/08/01 07:09:29;;;;;;;12.57;6.85;;;;;;;;;;5046428;28;20024;-72
2021/08/01 07:11:56;;;;;;;10.77;7.05;;;;;;;;;;5046332;28;20026;-72
2021/08/01 07:14:21;;;;;;;10.73;7.60;;;;;;;;;;5046399;28;20630;-72
2021/08/01 07:16:47;;;;;;;17.67;9.38;;;;;;;;;;5029889;28;20021;-73
2021/08/01 07:19:12;;;;;;;15.88;8.98;;;;;;;;;;5046457;28;20516;-72
2021/08/01 07:21:38;;;;;;;15.05;9.27;;;;;;;;;;5046187;28;20037;-73
2021/08/01 07:24:04;;;;;;;10.82;7.78;;;;;;;;;;5031260;28;20025;-71
2021/08/01 07:26:29;;;;;;;11.90;8.20;;;;;;;;;;5046287;28;20369;-72
2021/08/01 07:28:55;;;;;;;14.10;8.45;;;;;;;;;;5030991;28;20535;-72
2021/08/01 07:31:22;;;;;;;14.20;8.98;;;;;;;;;;5045930;28;20029;-71
2021/08/01 07:33:47;;;;;;;13.48;8.45;;;;;;;;;;5045897;28;20028;-71
2021/08/01 07:36:13;;;;;;;10.60;8.18;;;;;;;;;;5045982;28;20029;-71
2021/08/01 07:38:38;;;;;;;12.88;8.07;;;;;;;;;;5030521;28;20124;-72
2021/08/01 07:41:04;;;;;;;12.80;8.07;;;;;;;;;;5030857;28;20476;-72
2021/08/01 07:43:29;;;;;;;12.82;8.07;;;;;;;;;;5029144;28;20393;-73
2021/08/01 07:45:55;;;;;;;11.68;6.60;;;;;;;;;;5029386;28;20060;-72
2021/08/01 07:48:20;;;;;;;12.55;8.15;;;;;;;;;;5030464;28;20057;-72
2021/08/01 07:50:46;;;;;;;12.25;8.82;;;;;;;;;;5030512;28;20030;-74
2021/08/01 07:53:12;;;;;;;12.00;7.60;;;;;;;;;;5045732;28;20031;-73
2021/08/01 07:55:38;;;;;;;8.70;6.40;;;;;;;;;;5030492;28;20021;-73
2021/08/01 07:58:03;;;;;;;10.70;6.40;;;;;;;;;;5030338;28;20425;-72
2021/08/01 08:00:29;;;;;;;11.75;6.57;;;;;;;;;;5028730;28;20021;-73
2021/08/01 08:02:54;;;;;;;15.00;7.43;;;;;;;;;;5030271;28;20101;-72
2021/08/01 08:05:20;;;;;;;10.77;7.60;;;;;;;;;;5045330;28;20386;-73
2021/08/01 08:07:45;;;;;;;13.48;7.75;;;;;;;;;;5028673;28;20098;-74
2021/08/01 08:10:11;;;;;;;11.45;7.47;;;;;;;;;;5045351;28;20025;-73
2021/08/01 08:12:37;;;;;;;11.50;8.15;;;;;;;;;;5028330;28;20083;-73
2021/08/01 08:15:05;;;;;;;9.10;6.75;;;;;;;;;;5030089;28;20033;-74
2021/08/01 08:17:33;;;;;;;9.82;7.60;;;;;;;;;;5028415;28;20021;-74
2021/08/01 08:20:02;;;;;;;12.90;8.38;;;;;;;;;;5029913;28;20129;-74
2021/08/01 08:22:27;;;;;;;13.45;9.15;;;;;;;;;;5028507;28;20145;-73
2021/08/01 08:24:53;;;;;;;11.00;8.68;;;;;;;;;;5044989;28;20113;-73
2021/08/01 08:27:18;;;;;;;20.33;10.45;;;;;;;;;;5029850;28;20065;-73
2021/08/01 08:29:44;;;;;;;18.10;11.30;;;;;;;;;;5029758;28;20079;-74
2021/08/01 08:32:10;;;;;;;14.07;7.53;;;;;;;;;;5028560;28;20025;-73
2021/08/01 08:34:36;;;;;;;12.93;7.90;;;;;;;;;;5029442;28;20025;-74
2021/08/01 08:37:02;;;;;;;12.15;8.98;;;;;;;;;;5028291;28;20099;-72
2021/08/01 08:39:28;;;;;;;12.35;7.65;;;;;;;;;;5028059;28;20060;-74
2021/08/01 08:41:57;;;;;;;11.93;9.45;;;;;;;;;;5044505;28;20037;-73
2021/08/01 08:44:23;;;;;;;11.70;8.15;;;;;;;;;;5028056;28;20022;-74
2021/08/01 08:46:50;;;;;;;15.77;9.82;;;;;;;;;;5028113;28;20037;-74
2021/08/01 08:49:15;;;;;;;14.55;9.88;;;;;;;;;;5044704;28;20029;-72
2021/08/01 08:51:43;;;;;;;11.15;8.40;;;;;;;;;;5029230;28;20021;-73
2021/08/01 08:54:14;;;;;;;12.98;8.75;;;;;;;;;;5027982;28;20029;-74
2021/08/01 08:56:40;;;;;;;13.77;8.65;;;;;;;;;;5044404;28;20477;-75
2021/08/01 08:59:06;;;;;;;10.70;7.50;;;;;;;;;;5029194;28;20029;-72
2021/08/01 09:01:33;;;;;;;11.93;8.07;;;;;;;;;;5044180;28;20025;-74
2021/08/01 09:03:58;;;;;;;13.23;7.95;;;;;;;;;;5044473;28;20473;-73
2021/08/01 09:06:24;;;;;;;16.52;9.02;;;;;;;;;;5029118;28;20110;-73
2021/08/01 09:08:50;;;;;;;17.15;11.43;;;;;;;;;;5029025;28;20184;-73
2021/08/01 09:11:15;;;;;;;13.75;9.68;;;;;;;;;;5027885;28;20108;-73
2021/08/01 09:13:45;;;;;;;10.13;7.82;;;;;;;;;;5029008;28;20033;-73
2021/08/01 09:16:11;;;;;;;10.38;8.25;;;;;;;;;;5027542;28;20022;-74
2021/08/01 09:18:37;;;;;;;12.68;8.88;;;;;;;;;;5044006;28;20021;-75
2021/08/01 09:21:03;;;;;;;14.65;9.57;;;;;;;;;;5029064;28;20048;-74
2021/08/01 09:23:28;;;;;;;10.48;8.25;;;;;;;;;;5028922;28;20033;-73
2021/08/01 09:25:58;;;;;;;12.77;7.85;;;;;;;;;;5043957;28;20116;-74
2021/08/01 09:28:25;;;;;;;10.95;7.10;;;;;;;;;;5027642;28;20124;-74
2021/08/01 09:30:52;;;;;;;17.35;9.48;;;;;;;;;;5029050;28;20029;-75
2021/08/01 09:33:38;;;;;;;14.75;9.68;;;;;;;;;;5044282;28;20029;-74
2021/08/01 09:36:12;;;;;;;11.65;8.13;;;;;;;;;;5029002;28;20025;-73
2021/08/01 09:38:51;;;;;;;12.63;7.47;;;;;;;;;;5027250;28;20042;-72
2021/08/01 09:41:20;;;;;;;10.35;8.02;;;;;;;;;;5029052;28;20029;-74
2021/08/01 09:43:51;;;;;;;10.38;7.90;;;;;;;;;;5028539;28;20026;-73
2021/08/01 09:46:19;;;;;;;14.30;7.73;;;;;;;;;;5044009;28;20033;-73
2021/08/01 09:48:46;;;;;;;12.35;9.57;;;;;;;;;;5043559;28;20025;-73
2021/08/01 09:51:12;;;;;;;14.52;11.77;;;;;;;;;;5028669;28;20021;-75
2021/08/01 09:53:41;;;;;;;9.05;7.65;;;;;;;;;;5045969;28;20035;-74
2021/08/01 09:56:11;;;;;;;16.52;10.45;;;;;;;;;;5047781;28;20025;-74
2021/08/01 09:58:37;;;;;;;12.20;7.82;;;;;;;;;;5047388;28;20021;-74
2021/08/01 10:01:03;;;;;;;10.60;7.68;;;;;;;;;;5032621;28;20095;-74
2021/08/01 10:03:39;;;;;;;14.05;9.73;;;;;;;;;;5047527;28;20029;-74
2021/08/01 10:06:13;;;;;;;13.20;8.73;;;;;;;;;;5032018;28;20060;-75
2021/08/01 10:08:44;;;;;;;8.60;7.70;;;;;;;;;;5031852;28;20026;-75
2021/08/01 10:11:14;;;;;;;10.45;7.22;;;;;;;;;;5047687;28;20116;-74
2021/08/01 10:13:42;;;;;;;10.05;7.25;;;;;;;;;;5047465;28;20034;-73
2021/08/01 10:16:09;;;;;;;10.18;7.82;;;;;;;;;;5030667;28;20493;-74
2021/08/01 10:18:39;;;;;;;8.93;6.90;;;;;;;;;;5047320;28;20029;-73
2021/08/01 10:21:05;;;;;;;9.63;6.40;;;;;;;;;;5014897;28;20485;-73
2021/08/01 10:23:39;;;;;;;8.68;6.70;;;;;;;;;;5047460;28;20515;-74
2021/08/01 10:26:06;;;;;;;9.73;7.18;;;;;;;;;;5031903;28;20040;-74
2021/08/01 10:28:34;;;;;;;7.90;6.05;;;;;;;;;;5030490;28;20040;-73
2021/08/01 10:31:03;;;;;;;6.88;6.03;;;;;;;;;;5031839;28;20026;-73
2021/08/01 10:33:37;;;;;;;10.13;6.95;;;;;;;;;;5031613;28;20041;-73
2021/08/01 10:36:04;;;;;;;9.18;6.60;;;;;;;;;;5046771;28;20068;-73
2021/08/01 10:38:34;;;;;;;12.77;7.38;;;;;;;;;;5046674;28;20041;-73
2021/08/01 10:41:01;;;;;;;11.18;7.28;;;;;;;;;;5030413;28;20052;-74
2021/08/01 10:43:30;;;;;;;7.80;6.22;;;;;;;;;;5030212;28;20025;-74
2021/08/01 10:45:57;;;;;;;9.73;6.15;;;;;;;;;;5046935;28;20033;-73
2021/08/01 10:48:25;;;;;;;7.63;6.05;;;;;;;;;;5031509;28;20337;-73
2021/08/01 10:50:51;;;;;;;8.18;6.45;;;;;;;;;;5031522;28;20029;-76
2021/08/01 10:53:30;;;;;;;8.63;7.28;;;;;;;;;;5046764;28;20061;-75
2021/08/01 10:56:16;;;;;;;8.68;6.25;;;;;;;;;;5031920;28;20059;-74
2021/08/01 10:58:42;;;;;;;7.35;5.95;;;;;;;;;;5031047;28;20021;-74
2021/08/01 11:01:11;;;;;;;8.82;5.60;;;;;;;;;;5029872;28;20035;-75
2021/08/01 11:03:41;;;;;;;7.45;5.93;;;;;;;;;;5029847;28;20030;-74
2021/08/01 11:06:46;;;;;;;7.10;5.72;;;;;;;;;;5029321;28;20056;-74
2021/08/01 11:09:12;;;;;;;7.63;5.65;;;;;;;;;;5043582;28;20048;-74
2021/08/01 11:11:38;;;;;;;9.35;4.72;;;;;;;;;;5030920;28;20036;-73
2021/08/01 11:14:04;;;;;;;8.32;5.40;;;;;;;;;;5031307;28;20033;-74
2021/08/01 11:16:32;;;;;;;9.55;5.70;;;;;;;;;;5031270;28;20120;-75
2021/08/01 11:19:00;;;;;;;11.00;4.97;;;;;;;;;;5030912;28;20030;-73
2021/08/01 11:21:39;;;;;;;7.40;5.18;;;;;;;;;;5046291;28;20033;-73
2021/08/01 11:24:11;;;;;;;5.30;4.75;;;;;;;;;;5046040;28;20026;-74
2021/08/01 11:26:56;;;;;;;6.00;4.90;;;;;;;;;;5045893;28;20029;-73
2021/08/01 11:29:22;;;;;;;8.95;5.80;;;;;;;;;;5045750;28;20034;-73
2021/08/01 11:32:08;;;;;;;7.68;4.80;;;;;;;;;;5045301;28;20033;-75
2021/08/01 11:34:34;;;;;;;9.40;6.20;;;;;;;;;;5030311;28;20025;-74
2021/08/01 11:37:20;;;;;;;8.98;5.28;;;;;;;;;;5045678;28;20030;-74
2021/08/01 11:39:52;;;;;;;10.15;6.10;;;;;;;;;;5029132;28;20064;-74
2021/08/01 11:42:28;;;;;;;7.90;4.75;;;;;;;;;;5030713;28;20144;-74
2021/08/01 11:44:59;;;;;;;7.05;5.40;;;;;;;;;;5028593;28;20045;-74
2021/08/01 11:47:26;;;;;;;8.73;4.75;;;;;;;;;;5045598;28;20524;-74
2021/08/01 11:49:52;;;;;;;5.32;4.70;;;;;;;;;;5045440;28;20036;-74
2021/08/01 11:52:21;;;;;;;6.88;4.00;;;;;;;;;;5045714;28;20280;-73
2021/08/01 11:54:54;;;;;;;4.85;4.30;;;;;;;;;;5046221;28;20075;-73
2021/08/01 11:57:19;;;;;;;5.68;4.10;;;;;;;;;;5030629;28;20103;-73
2021/08/01 11:59:51;;;;;;;7.18;5.15;;;;;;;;;;5029953;28;20038;-75
2021/08/01 12:02:18;;;;;;;6.65;5.20;;;;;;;;;;5030018;28;20029;-74
2021/08/01 12:04:54;;;;;;;8.73;5.40;;;;;;;;;;5029974;28;20026;-73
2021/08/01 12:07:20;;;;;;;8.27;4.78;;;;;;;;;;5045068;28;20060;-73
2021/08/01 12:09:46;;;;;;;7.63;4.50;;;;;;;;;;5044966;28;20152;-74
2021/08/01 12:12:11;;;;;;;7.90;4.90;;;;;;;;;;5045413;28;20021;-74
2021/08/01 12:14:40;;;;;;;8.27;4.22;;;;;;;;;;5029811;28;20428;-74
2021/08/01 12:17:12;;;;;;;6.03;4.68;;;;;;;;;;5028709;28;20112;-74
2021/08/01 12:19:49;;;;;;;5.82;4.07;;;;;;;;;;5044742;28;20086;-74
2021/08/01 12:22:20;;;;;;;5.82;4.47;;;;;;;;;;5028231;28;20025;-73
2021/08/01 12:24:57;;;;;;;9.02;4.63;;;;;;;;;;5044677;28;20555;-74
2021/08/01 12:27:33;;;;;;;6.07;4.78;;;;;;;;;;5044896;28;20035;-74
2021/08/01 12:30:17;;;;;;;5.30;4.32;;;;;;;;;;5044834;28;20151;-74
2021/08/01 12:32:45;;;;;;;6.70;4.90;;;;;;;;;;5044530;28;20025;-74
2021/08/01 12:35:31;;;;;;;9.63;5.95;;;;;;;;;;5044288;28;20520;-75
2021/08/01 12:38:00;;;;;;;6.00;4.70;;;;;;;;;;5044115;28;20045;-75
2021/08/01 12:40:39;;;;;;;8.10;4.57;;;;;;;;;;5029274;28;20029;-75
2021/08/01 12:43:08;;;;;;;6.30;4.05;;;;;;;;;;5029385;28;20104;-75
2021/08/01 12:45:54;;;;;;;5.88;4.05;;;;;;;;;;5028182;28;20121;-74
2021/08/01 12:48:19;;;;;;;7.93;3.83;;;;;;;;;;5044788;28;20119;-74
2021/08/01 12:50:58;;;;;;;7.88;4.43;;;;;;;;;;5029202;28;20055;-74
2021/08/01 12:53:25;;;;;;;4.18;3.78;;;;;;;;;;5029222;28;20025;-74
2021/08/01 12:56:04;;;;;;;5.00;4.45;;;;;;;;;;5029048;28;20032;-75
2021/08/01 12:58:30;;;;;;;4.72;3.95;;;;;;;;;;5029310;28;20033;-73
2021/08/01 13:01:03;;;;;;;7.22;4.97;;;;;;;;;;5044264;28;20035;-73
2021/08/01 13:03:43;;;;;;;5.63;3.22;;;;;;;;;;5027841;28;20441;-74
2021/08/01 13:06:11;;;;;;;5.18;3.53;;;;;;;;;;5044264;28;20056;-73
2021/08/01 13:08:40;;;;;;;3.78;3.38;;;;;;;;;;5029090;28;20029;-74
2021/08/01 13:11:09;;;;;;;6.93;3.25;;;;;;;;;;5044157;28;20393;-74
2021/08/01 13:13:52;;;;;;;5.20;3.13;;;;;;;;;;5044419;28;20397;-74
2021/08/01 13:16:18;;;;;;;7.18;4.05;;;;;;;;;;5029113;28;20037;-74
2021/08/01 13:18:43;;;;;;;4.63;3.55;;;;;;;;;;5028884;28;20040;-74
2021/08/01 13:21:15;;;;;;;3.35;3.00;;;;;;;;;;5044490;28;20037;-74
2021/08/01 13:23:43;;;;;;;5.78;3.47;;;;;;;;;;5028819;28;20043;-74
2021/08/01 13:26:17;;;;;;;5.40;3.30;;;;;;;;;;5027404;28;20040;-74
2021/08/01 13:29:00;;;;;;;3.92;3.08;;;;;;;;;;5031389;28;20029;-74
2021/08/01 13:31:28;;;;;;;6.53;3.50;;;;;;;;;;5032971;28;20036;-75
2021/08/01 13:33:57;;;;;;;3.33;3.03;;;;;;;;;;5032706;28;20025;-74
2021/08/01 13:36:40;;;;;;;4.40;3.55;;;;;;;;;;5048246;28;20086;-74
2021/08/01 13:39:05;;;;;;;3.45;3.15;;;;;;;;;;5031582;28;20056;-73
2021/08/01 13:41:31;;;;;;;4.97;2.60;;;;;;;;;;5033019;28;20033;-74
2021/08/01 13:44:07;;;;;;;5.70;2.58;;;;;;;;;;5047756;28;20033;-74
2021/08/01 13:46:36;;;;;;;4.32;2.65;;;;;;;;;;5032919;28;20052;-74
2021/08/01 13:49:01;;;;;;;5.32;2.97;;;;;;;;;;5031331;28;20047;-74
2021/08/01 13:51:27;;;;;;;3.28;2.45;;;;;;;;;;5047960;28;20028;-74
2021/08/01 13:53:52;;;;;;;3.05;2.38;;;;;;;;;;5047383;28;20508;-76
2021/08/01 13:56:18;;;;;;;2.38;2.08;;;;;;;;;;5032430;28;20032;-74
2021/08/01 13:58:43;;;;;;;2.35;2.15;;;;;;;;;;5047360;28;20128;-74
2021/08/01 14:01:09;;;;;;;3.88;2.33;;;;;;;;;;5047580;28;20056;-74
2021/08/01 14:03:36;;;;;;;3.97;2.30;;;;;;;;;;5032868;28;20044;-74
2021/08/01 14:06:02;;;;;;;3.13;2.20;;;;;;;;;;5031163;28;20032;-74
2021/08/01 14:08:27;;;;;;;2.33;2.10;;;;;;;;;;5032297;28;20025;-74
2021/08/01 14:10:53;;;;;;;2.58;2.10;;;;;;;;;;5032732;28;20056;-74
2021/08/01 14:13:19;;;;;;;2.28;2.08;;;;;;;;;;5031255;28;20041;-74
2021/08/01 14:15:44;;;;;;;2.40;2.20;;;;;;;;;;5047360;28;20032;-74
